PWSweather.com
Personal Weather Stations
Station Observations
ISYDDANM23
Felsted, AabenraaDK 6200

FelstedAabenraaDK 6200

Lat: 54.977066, Lon: 9.507192

Elevation: 135

Station Type: Davis Vantage Pro 2 Plus 24H

http://www.valkaer.dk

High Low Average
Temperature 73.1°F22.8°C 54.2°F12.3°C 63.1°F17.3°C
Dew Point 61.2°F16.2°C 50.5°F10.3°C 55.7°F13.2°C
Winds 26.5 mph 42.6 kmh Calm Calm 4.0 mph ESE6.4 kmh ESE
Wind Gusts 35.7 mph57.5 kmh -- 6.0 mph9.7 kmh
Humidity 92% 52% 78%
Pressure 30.03 in1016.9 mb 29.93 in1013.5 mb -
Precipitation 0.21 in5.3 mm - -
Hour Temp Dew Point Humidity Winds Wind Gusts Pressure Precip Precip Rate Daily Precip Total
12:00 AM 57.9°F14.4°C 53.0°F11.7°C 84% 1.2 mph SE1.9 kmh SE 3.5 mph5.6 kmh 29.94 in1013.9 mb - 0.00 in0.0 mm 0.00 in0.0 mm
12:10 AM 57.0°F13.9°C 52.5°F11.4°C 85% Calm Calm 1.2 mph1.9 kmh 29.94 in1013.9 mb - 0.00 in0.0 mm 0.00 in0.0 mm
12:15 AM 56.7°F13.7°C 52.6°F11.4°C 86% 1.2 mph SE1.9 kmh SE 1.2 mph1.9 kmh 29.94 in1013.9 mb - 0.00 in0.0 mm 0.00 in0.0 mm
12:20 AM 56.0°F13.3°C 51.8°F11.0°C 86% Calm Calm -- 29.94 in1013.9 mb - 0.00 in0.0 mm 0.00 in0.0 mm
12:25 AM 55.9°F13.3°C 52.4°F11.3°C 88% 1.2 mph SE1.9 kmh SE 1.2 mph1.9 kmh 29.94 in1013.9 mb - 0.00 in0.0 mm 0.00 in0.0 mm
12:30 AM 55.4°F13.0°C 51.3°F10.7°C 86% Calm Calm -- 29.94 in1013.9 mb - 0.00 in0.0 mm 0.00 in0.0 mm
12:35 AM 54.7°F12.6°C 51.5°F10.8°C 89% 1.2 mph SE1.9 kmh SE 1.2 mph1.9 kmh 29.94 in1013.9 mb - 0.00 in0.0 mm 0.00 in0.0 mm
12:40 AM 55.2°F12.9°C 51.7°F10.9°C 88% 1.2 mph SE1.9 kmh SE 1.2 mph1.9 kmh 29.94 in1013.9 mb - 0.00 in0.0 mm 0.00 in0.0 mm
12:45 AM 54.9°F12.7°C 51.7°F10.9°C 89% 1.2 mph SE1.9 kmh SE 2.3 mph3.7 kmh 29.94 in1013.9 mb - 0.00 in0.0 mm 0.00 in0.0 mm
12:50 AM 55.1°F12.8°C 51.6°F10.9°C 88% 1.2 mph SE1.9 kmh SE 2.3 mph3.7 kmh 29.94 in1013.9 mb - 0.00 in0.0 mm 0.00 in0.0 mm
12:55 AM 55.0°F12.8°C 51.5°F10.8°C 88% 2.3 mph SE3.7 kmh SE 3.5 mph5.6 kmh 29.94 in1013.9 mb - 0.00 in0.0 mm 0.00 in0.0 mm
01:00 AM 55.3°F12.9°C 51.8°F11.0°C 88% Calm Calm 1.2 mph1.9 kmh 29.95 in1014.2 mb - 0.00 in0.0 mm 0.00 in0.0 mm
01:10 AM 55.3°F12.9°C 51.5°F10.8°C 87% Calm Calm 2.3 mph3.7 kmh 29.95 in1014.2 mb - 0.00 in0.0 mm 0.00 in0.0 mm
01:15 AM 55.2°F12.9°C 51.4°F10.8°C 87% Calm Calm 1.2 mph1.9 kmh 29.95 in1014.2 mb - 0.00 in0.0 mm 0.00 in0.0 mm
01:20 AM 55.1°F12.8°C 51.3°F10.7°C 87% 1.2 mph SE1.9 kmh SE 2.3 mph3.7 kmh 29.96 in1014.6 mb - 0.00 in0.0 mm 0.00 in0.0 mm
01:25 AM 55.1°F12.8°C 51.3°F10.7°C 87% Calm Calm 1.2 mph1.9 kmh 29.96 in1014.6 mb - 0.00 in0.0 mm 0.00 in0.0 mm
01:30 AM 55.1°F12.8°C 51.6°F10.9°C 88% Calm Calm -- 29.95 in1014.2 mb - 0.00 in0.0 mm 0.00 in0.0 mm
01:35 AM 55.1°F12.8°C 51.7°F10.9°C 88% Calm Calm -- 29.96 in1014.6 mb - 0.00 in0.0 mm 0.00 in0.0 mm
01:40 AM 55.2°F12.9°C 52.0°F11.1°C 89% Calm Calm 1.2 mph1.9 kmh 29.96 in1014.6 mb - 0.00 in0.0 mm 0.00 in0.0 mm
01:45 AM 55.2°F12.9°C 51.7°F10.9°C 88% 1.2 mph SE1.9 kmh SE 2.3 mph3.7 kmh 29.96 in1014.6 mb - 0.00 in0.0 mm 0.00 in0.0 mm
01:50 AM 55.4°F13.0°C 51.9°F11.1°C 88% 1.2 mph SE1.9 kmh SE 3.5 mph5.6 kmh 29.96 in1014.6 mb - 0.00 in0.0 mm 0.00 in0.0 mm
01:55 AM 55.4°F13.0°C 51.9°F11.1°C 88% 2.3 mph SE3.7 kmh SE 3.5 mph5.6 kmh 29.96 in1014.6 mb - 0.00 in0.0 mm 0.00 in0.0 mm
02:00 AM 55.4°F13.0°C 51.9°F11.1°C 88% 2.3 mph SE3.7 kmh SE 3.5 mph5.6 kmh 29.96 in1014.6 mb - 0.00 in0.0 mm 0.00 in0.0 mm
02:10 AM 55.6°F13.1°C 52.1°F11.2°C 88% 1.2 mph SE1.9 kmh SE 2.3 mph3.7 kmh 29.96 in1014.6 mb - 0.00 in0.0 mm 0.00 in0.0 mm
02:15 AM 55.5°F13.1°C 52.1°F11.2°C 88% 1.2 mph SE1.9 kmh SE 2.3 mph3.7 kmh 29.97 in1014.9 mb - 0.00 in0.0 mm 0.00 in0.0 mm
02:20 AM 55.7°F13.2°C 52.2°F11.2°C 88% 1.2 mph SSE1.9 kmh SSE 2.3 mph3.7 kmh 29.97 in1014.9 mb - 0.00 in0.0 mm 0.00 in0.0 mm
02:25 AM 55.8°F13.2°C 52.6°F11.4°C 89% 2.3 mph SSE3.7 kmh SSE 3.5 mph5.6 kmh 29.97 in1014.9 mb - 0.00 in0.0 mm 0.00 in0.0 mm
02:30 AM 55.9°F13.3°C 52.7°F11.5°C 89% 1.2 mph SSE1.9 kmh SSE 2.3 mph3.7 kmh 29.96 in1014.6 mb - 0.00 in0.0 mm 0.00 in0.0 mm
02:35 AM 55.9°F13.3°C 52.7°F11.5°C 89% 1.2 mph SSE1.9 kmh SSE 2.3 mph3.7 kmh 29.96 in1014.6 mb - 0.00 in0.0 mm 0.00 in0.0 mm
02:40 AM 56.0°F13.3°C 52.8°F11.6°C 89% 1.2 mph SE1.9 kmh SE 3.5 mph5.6 kmh 29.96 in1014.6 mb - 0.00 in0.0 mm 0.00 in0.0 mm
02:45 AM 55.9°F13.3°C 52.4°F11.3°C 88% 1.2 mph SE1.9 kmh SE 2.3 mph3.7 kmh 29.96 in1014.6 mb - 0.00 in0.0 mm 0.00 in0.0 mm
02:50 AM 55.8°F13.2°C 52.6°F11.4°C 89% 1.2 mph SE1.9 kmh SE 2.3 mph3.7 kmh 29.96 in1014.6 mb - 0.00 in0.0 mm 0.00 in0.0 mm
02:55 AM 55.9°F13.3°C 52.7°F11.5°C 89% 1.2 mph SE1.9 kmh SE 2.3 mph3.7 kmh 29.96 in1014.6 mb - 0.00 in0.0 mm 0.00 in0.0 mm
03:00 AM 56.1°F13.4°C 52.9°F11.6°C 89% 2.3 mph SE3.7 kmh SE 3.5 mph5.6 kmh 29.97 in1014.9 mb - 0.00 in0.0 mm 0.00 in0.0 mm
03:10 AM 56.4°F13.6°C 52.6°F11.4°C 87% 2.3 mph SE3.7 kmh SE 3.5 mph5.6 kmh 29.96 in1014.6 mb - 0.00 in0.0 mm 0.00 in0.0 mm
03:15 AM 56.3°F13.5°C 52.4°F11.3°C 87% 1.2 mph SE1.9 kmh SE 2.3 mph3.7 kmh 29.96 in1014.6 mb - 0.00 in0.0 mm 0.00 in0.0 mm
03:20 AM 56.1°F13.4°C 52.6°F11.4°C 88% 1.2 mph SE1.9 kmh SE 3.5 mph5.6 kmh 29.97 in1014.9 mb - 0.00 in0.0 mm 0.00 in0.0 mm
03:25 AM 56.1°F13.4°C 52.3°F11.3°C 87% 2.3 mph SE3.7 kmh SE 3.5 mph5.6 kmh 29.96 in1014.6 mb - 0.00 in0.0 mm 0.00 in0.0 mm
03:30 AM 56.1°F13.4°C 52.3°F11.3°C 87% 2.3 mph SE3.7 kmh SE 3.5 mph5.6 kmh 29.96 in1014.6 mb - 0.00 in0.0 mm 0.00 in0.0 mm
03:35 AM 55.8°F13.2°C 52.0°F11.1°C 87% 3.5 mph SE5.6 kmh SE 4.6 mph7.4 kmh 29.97 in1014.9 mb - 0.00 in0.0 mm 0.00 in0.0 mm
03:40 AM 55.6°F13.1°C 51.8°F11.0°C 87% 2.3 mph SE3.7 kmh SE 3.5 mph5.6 kmh 29.97 in1014.9 mb - 0.00 in0.0 mm 0.00 in0.0 mm
03:45 AM 55.4°F13.0°C 51.6°F10.9°C 87% 2.3 mph SE3.7 kmh SE 3.5 mph5.6 kmh 29.97 in1014.9 mb - 0.00 in0.0 mm 0.00 in0.0 mm
03:50 AM 55.1°F12.8°C 51.6°F10.9°C 88% 2.3 mph SE3.7 kmh SE 3.5 mph5.6 kmh 29.97 in1014.9 mb - 0.00 in0.0 mm 0.00 in0.0 mm
03:55 AM 54.9°F12.7°C 51.1°F10.6°C 87% 2.3 mph SE3.7 kmh SE 3.5 mph5.6 kmh 29.97 in1014.9 mb - 0.00 in0.0 mm 0.00 in0.0 mm
04:00 AM 54.8°F12.7°C 51.0°F10.6°C 87% 2.3 mph SE3.7 kmh SE 3.5 mph5.6 kmh 29.97 in1014.9 mb - 0.00 in0.0 mm 0.00 in0.0 mm
04:10 AM 54.6°F12.6°C 51.1°F10.6°C 88% 2.3 mph SE3.7 kmh SE 3.5 mph5.6 kmh 29.97 in1014.9 mb - 0.00 in0.0 mm 0.00 in0.0 mm
04:15 AM 54.5°F12.5°C 51.0°F10.6°C 88% 1.2 mph SE1.9 kmh SE 2.3 mph3.7 kmh 29.97 in1014.9 mb - 0.00 in0.0 mm 0.00 in0.0 mm
04:20 AM 54.4°F12.4°C 50.9°F10.5°C 88% 1.2 mph SE1.9 kmh SE 2.3 mph3.7 kmh 29.97 in1014.9 mb - 0.00 in0.0 mm 0.00 in0.0 mm
04:25 AM 54.3°F12.4°C 50.5°F10.3°C 87% 2.3 mph ESE3.7 kmh ESE 3.5 mph5.6 kmh 29.97 in1014.9 mb - 0.00 in0.0 mm 0.00 in0.0 mm
04:30 AM 54.3°F12.4°C 50.8°F10.4°C 88% 1.2 mph SE1.9 kmh SE 3.5 mph5.6 kmh 29.97 in1014.9 mb - 0.00 in0.0 mm 0.00 in0.0 mm
04:35 AM 54.3°F12.4°C 50.8°F10.4°C 88% 1.2 mph SE1.9 kmh SE 3.5 mph5.6 kmh 29.97 in1014.9 mb - 0.00 in0.0 mm 0.00 in0.0 mm
04:40 AM 54.2°F12.3°C 50.8°F10.4°C 88% 1.2 mph SE1.9 kmh SE 1.2 mph1.9 kmh 29.97 in1014.9 mb - 0.00 in0.0 mm 0.00 in0.0 mm
04:45 AM 54.4°F12.4°C 50.9°F10.5°C 88% 1.2 mph SE1.9 kmh SE 2.3 mph3.7 kmh 29.98 in1015.2 mb - 0.00 in0.0 mm 0.00 in0.0 mm
04:50 AM 54.2°F12.3°C 50.7°F10.4°C 88% 1.2 mph SE1.9 kmh SE 1.2 mph1.9 kmh 29.98 in1015.2 mb - 0.00 in0.0 mm 0.00 in0.0 mm
04:55 AM 54.5°F12.5°C 51.3°F10.7°C 89% 2.3 mph SE3.7 kmh SE 2.3 mph3.7 kmh 29.98 in1015.2 mb - 0.00 in0.0 mm 0.00 in0.0 mm
05:00 AM 54.5°F12.5°C 51.0°F10.6°C 88% Calm Calm -- 29.98 in1015.2 mb - 0.00 in0.0 mm 0.00 in0.0 mm
05:10 AM 55.1°F12.8°C 51.6°F10.9°C 88% 1.2 mph SE1.9 kmh SE 2.3 mph3.7 kmh 29.98 in1015.2 mb - 0.00 in0.0 mm 0.00 in0.0 mm
05:15 AM 55.4°F13.0°C 51.9°F11.1°C 88% 1.2 mph SE1.9 kmh SE 2.3 mph3.7 kmh 29.98 in1015.2 mb - 0.00 in0.0 mm 0.00 in0.0 mm
05:20 AM 55.6°F13.1°C 52.1°F11.2°C 88% 1.2 mph SE1.9 kmh SE 2.3 mph3.7 kmh 29.98 in1015.2 mb - 0.00 in0.0 mm 0.00 in0.0 mm
05:25 AM 56.0°F13.3°C 52.2°F11.2°C 87% 1.2 mph SE1.9 kmh SE 2.3 mph3.7 kmh 29.98 in1015.2 mb - 0.00 in0.0 mm 0.00 in0.0 mm
05:30 AM 56.4°F13.6°C 52.5°F11.4°C 87% 2.3 mph SE3.7 kmh SE 2.3 mph3.7 kmh 29.98 in1015.2 mb - 0.00 in0.0 mm 0.00 in0.0 mm
05:35 AM 56.7°F13.7°C 52.9°F11.6°C 87% 2.3 mph SE3.7 kmh SE 3.5 mph5.6 kmh 29.98 in1015.2 mb - 0.00 in0.0 mm 0.00 in0.0 mm
05:40 AM 57.2°F14.0°C 53.0°F11.7°C 86% 2.3 mph SE3.7 kmh SE 3.5 mph5.6 kmh 29.98 in1015.2 mb - 0.00 in0.0 mm 0.00 in0.0 mm
05:45 AM 57.7°F14.3°C 53.5°F11.9°C 86% 2.3 mph SE3.7 kmh SE 3.5 mph5.6 kmh 29.98 in1015.2 mb - 0.00 in0.0 mm 0.00 in0.0 mm
05:50 AM 58.2°F14.6°C 53.4°F11.9°C 84% 2.3 mph SE3.7 kmh SE 3.5 mph5.6 kmh 29.97 in1014.9 mb - 0.00 in0.0 mm 0.00 in0.0 mm
05:55 AM 58.2°F14.6°C 53.4°F11.9°C 84% 1.2 mph SE1.9 kmh SE 3.5 mph5.6 kmh 29.98 in1015.2 mb - 0.00 in0.0 mm 0.00 in0.0 mm
06:00 AM 58.1°F14.5°C 53.2°F11.8°C 84% 2.3 mph SE3.7 kmh SE 2.3 mph3.7 kmh 29.98 in1015.2 mb - 0.00 in0.0 mm 0.00 in0.0 mm
06:10 AM 58.8°F14.9°C 54.0°F12.2°C 84% 2.3 mph SSE3.7 kmh SSE 4.6 mph7.4 kmh 29.98 in1015.2 mb - 0.00 in0.0 mm 0.00 in0.0 mm
06:15 AM 59.5°F15.3°C 54.3°F12.4°C 83% 2.3 mph SSE3.7 kmh SSE 4.6 mph7.4 kmh 29.98 in1015.2 mb - 0.00 in0.0 mm 0.00 in0.0 mm
06:20 AM 59.9°F15.5°C 54.7°F12.6°C 83% 2.3 mph SE3.7 kmh SE 3.5 mph5.6 kmh 29.99 in1015.6 mb - 0.00 in0.0 mm 0.00 in0.0 mm
06:25 AM 60.5°F15.8°C 55.3°F12.9°C 83% 2.3 mph SE3.7 kmh SE 3.5 mph5.6 kmh 29.99 in1015.6 mb - 0.00 in0.0 mm 0.00 in0.0 mm
06:30 AM 60.7°F15.9°C 55.5°F13.1°C 83% 3.5 mph SE5.6 kmh SE 3.5 mph5.6 kmh 29.99 in1015.6 mb - 0.00 in0.0 mm 0.00 in0.0 mm
06:35 AM 60.6°F15.9°C 54.7°F12.6°C 81% 3.5 mph SE5.6 kmh SE 3.5 mph5.6 kmh 29.99 in1015.6 mb - 0.00 in0.0 mm 0.00 in0.0 mm
06:40 AM 60.4°F15.8°C 54.9°F12.7°C 82% 3.5 mph SE5.6 kmh SE 3.5 mph5.6 kmh 29.99 in1015.6 mb - 0.00 in0.0 mm 0.00 in0.0 mm
06:45 AM 60.2°F15.7°C 54.7°F12.6°C 82% 2.3 mph SE3.7 kmh SE 4.6 mph7.4 kmh 29.99 in1015.6 mb - 0.00 in0.0 mm 0.00 in0.0 mm
06:50 AM 60.1°F15.6°C 54.6°F12.6°C 82% 2.3 mph SE3.7 kmh SE 3.5 mph5.6 kmh 29.99 in1015.6 mb - 0.00 in0.0 mm 0.00 in0.0 mm
06:55 AM 60.0°F15.6°C 54.5°F12.5°C 82% 3.5 mph SE5.6 kmh SE 3.5 mph5.6 kmh 29.99 in1015.6 mb - 0.00 in0.0 mm 0.00 in0.0 mm
07:00 AM 59.9°F15.5°C 54.4°F12.4°C 82% 2.3 mph SE3.7 kmh SE 3.5 mph5.6 kmh 30.00 in1015.9 mb - 0.00 in0.0 mm 0.00 in0.0 mm
07:10 AM 59.7°F15.4°C 54.2°F12.3°C 82% 2.3 mph SE3.7 kmh SE 3.5 mph5.6 kmh 29.99 in1015.6 mb - 0.00 in0.0 mm 0.00 in0.0 mm
07:15 AM 59.7°F15.4°C 54.2°F12.3°C 82% 2.3 mph SE3.7 kmh SE 3.5 mph5.6 kmh 29.99 in1015.6 mb - 0.00 in0.0 mm 0.00 in0.0 mm
07:20 AM 59.9°F15.5°C 54.7°F12.6°C 83% 2.3 mph SE3.7 kmh SE 3.5 mph5.6 kmh 30.00 in1015.9 mb - 0.00 in0.0 mm 0.00 in0.0 mm
07:25 AM 60.6°F15.9°C 55.1°F12.8°C 82% 2.3 mph SE3.7 kmh SE 3.5 mph5.6 kmh 30.00 in1015.9 mb - 0.00 in0.0 mm 0.00 in0.0 mm
07:30 AM 60.8°F16.0°C 55.0°F12.8°C 81% 2.3 mph SE3.7 kmh SE 3.5 mph5.6 kmh 30.00 in1015.9 mb - 0.00 in0.0 mm 0.00 in0.0 mm
07:35 AM 62.1°F16.7°C 55.8°F13.2°C 80% 2.3 mph SE3.7 kmh SE 3.5 mph5.6 kmh 30.00 in1015.9 mb - 0.00 in0.0 mm 0.00 in0.0 mm
07:40 AM 62.7°F17.1°C 56.1°F13.4°C 79% 2.3 mph SSE3.7 kmh SSE 3.5 mph5.6 kmh 30.01 in1016.3 mb - 0.00 in0.0 mm 0.00 in0.0 mm
07:45 AM 63.2°F17.3°C 55.1°F12.8°C 75% 5.8 mph S9.3 kmh S 9.2 mph14.8 kmh 30.01 in1016.3 mb - 0.00 in0.0 mm 0.00 in0.0 mm
07:50 AM 63.0°F17.2°C 54.2°F12.3°C 73% 4.6 mph SE7.4 kmh SE 6.9 mph11.1 kmh 30.01 in1016.3 mb - 0.00 in0.0 mm 0.00 in0.0 mm
07:55 AM 63.5°F17.5°C 55.4°F13.0°C 75% 3.5 mph S5.6 kmh S 4.6 mph7.4 kmh 30.01 in1016.3 mb - 0.00 in0.0 mm 0.00 in0.0 mm
08:00 AM 64.7°F18.2°C 56.2°F13.4°C 74% 3.5 mph S5.6 kmh S 5.8 mph9.3 kmh 30.01 in1016.3 mb - 0.00 in0.0 mm 0.00 in0.0 mm
08:10 AM 65.8°F18.8°C 55.7°F13.2°C 70% 3.5 mph S5.6 kmh S 4.6 mph7.4 kmh 30.01 in1016.3 mb - 0.00 in0.0 mm 0.00 in0.0 mm
08:15 AM 66.3°F19.1°C 55.8°F13.2°C 69% 4.6 mph SSW7.4 kmh SSW 6.9 mph11.1 kmh 30.01 in1016.3 mb - 0.00 in0.0 mm 0.00 in0.0 mm
08:20 AM 66.5°F19.2°C 55.6°F13.1°C 68% 5.8 mph S9.3 kmh S 9.2 mph14.8 kmh 30.01 in1016.3 mb - 0.00 in0.0 mm 0.00 in0.0 mm
08:25 AM 66.5°F19.2°C 54.4°F12.4°C 65% 4.6 mph S7.4 kmh S 10.4 mph16.7 kmh 30.01 in1016.3 mb - 0.00 in0.0 mm 0.00 in0.0 mm
08:30 AM 66.7°F19.3°C 55.0°F12.8°C 66% 5.8 mph S9.3 kmh S 6.9 mph11.1 kmh 30.02 in1016.6 mb - 0.00 in0.0 mm 0.00 in0.0 mm
08:35 AM 66.7°F19.3°C 54.1°F12.3°C 64% 4.6 mph SE7.4 kmh SE 8.1 mph13.0 kmh 30.01 in1016.3 mb - 0.00 in0.0 mm 0.00 in0.0 mm
08:40 AM 66.7°F19.3°C 54.2°F12.3°C 64% 3.5 mph S5.6 kmh S 5.8 mph9.3 kmh 30.02 in1016.6 mb - 0.00 in0.0 mm 0.00 in0.0 mm
08:45 AM 67.5°F19.7°C 55.3°F12.9°C 65% 3.5 mph S5.6 kmh S 5.8 mph9.3 kmh 30.01 in1016.3 mb - 0.00 in0.0 mm 0.00 in0.0 mm
08:50 AM 67.9°F19.9°C 54.4°F12.4°C 62% 5.8 mph SSE9.3 kmh SSE 9.2 mph14.8 kmh 30.02 in1016.6 mb - 0.00 in0.0 mm 0.00 in0.0 mm
08:55 AM 68.0°F20.0°C 54.9°F12.7°C 63% 4.6 mph S7.4 kmh S 8.1 mph13.0 kmh 30.02 in1016.6 mb - 0.00 in0.0 mm 0.00 in0.0 mm
09:00 AM 68.1°F20.1°C 55.0°F12.8°C 63% 5.8 mph S9.3 kmh S 5.8 mph9.3 kmh 30.02 in1016.6 mb - 0.00 in0.0 mm 0.00 in0.0 mm
09:10 AM 67.8°F19.9°C 54.3°F12.4°C 62% 4.6 mph S7.4 kmh S 6.9 mph11.1 kmh 30.02 in1016.6 mb - 0.00 in0.0 mm 0.00 in0.0 mm
09:15 AM 68.1°F20.1°C 54.6°F12.6°C 62% 3.5 mph S5.6 kmh S 4.6 mph7.4 kmh 30.02 in1016.6 mb - 0.00 in0.0 mm 0.00 in0.0 mm
09:20 AM 68.6°F20.3°C 55.9°F13.3°C 64% 4.6 mph S7.4 kmh S 6.9 mph11.1 kmh 30.02 in1016.6 mb - 0.00 in0.0 mm 0.00 in0.0 mm
09:25 AM 68.7°F20.4°C 56.0°F13.3°C 64% 5.8 mph SSE9.3 kmh SSE 9.2 mph14.8 kmh 30.02 in1016.6 mb - 0.00 in0.0 mm 0.00 in0.0 mm
09:30 AM 68.5°F20.3°C 55.9°F13.3°C 64% 6.9 mph SE11.1 kmh SE 11.5 mph18.5 kmh 30.02 in1016.6 mb - 0.00 in0.0 mm 0.00 in0.0 mm
09:35 AM 68.6°F20.3°C 55.5°F13.1°C 63% 6.9 mph SE11.1 kmh SE 9.2 mph14.8 kmh 30.02 in1016.6 mb - 0.00 in0.0 mm 0.00 in0.0 mm
09:40 AM 68.4°F20.2°C 55.3°F12.9°C 63% 4.6 mph SE7.4 kmh SE 10.4 mph16.7 kmh 30.02 in1016.6 mb - 0.00 in0.0 mm 0.00 in0.0 mm
09:45 AM 68.5°F20.3°C 55.0°F12.8°C 62% 5.8 mph SE9.3 kmh SE 8.1 mph13.0 kmh 30.02 in1016.6 mb - 0.00 in0.0 mm 0.00 in0.0 mm
09:50 AM 68.6°F20.3°C 55.5°F13.1°C 63% 5.8 mph SE9.3 kmh SE 9.2 mph14.8 kmh 30.02 in1016.6 mb - 0.00 in0.0 mm 0.00 in0.0 mm
09:55 AM 68.9°F20.5°C 55.8°F13.2°C 63% 4.6 mph SE7.4 kmh SE 6.9 mph11.1 kmh 30.02 in1016.6 mb - 0.00 in0.0 mm 0.00 in0.0 mm
10:00 AM 69.6°F20.9°C 56.4°F13.6°C 63% 4.6 mph SE7.4 kmh SE 9.2 mph14.8 kmh 30.01 in1016.3 mb - 0.00 in0.0 mm 0.00 in0.0 mm
10:10 AM 70.3°F21.3°C 55.3°F12.9°C 59% 6.9 mph S11.1 kmh S 10.4 mph16.7 kmh 30.02 in1016.6 mb - 0.00 in0.0 mm 0.00 in0.0 mm
10:15 AM 69.8°F21.0°C 55.7°F13.2°C 61% 5.8 mph SSE9.3 kmh SSE 9.2 mph14.8 kmh 30.02 in1016.6 mb - 0.00 in0.0 mm 0.00 in0.0 mm
10:20 AM 70.1°F21.2°C 55.1°F12.8°C 59% 5.8 mph SSE9.3 kmh SSE 6.9 mph11.1 kmh 30.02 in1016.6 mb - 0.00 in0.0 mm 0.00 in0.0 mm
10:25 AM 70.9°F21.6°C 57.2°F14.0°C 62% 5.8 mph SSW9.3 kmh SSW 6.9 mph11.1 kmh 30.02 in1016.6 mb - 0.00 in0.0 mm 0.00 in0.0 mm
10:30 AM 70.8°F21.6°C 55.8°F13.2°C 59% 3.5 mph S5.6 kmh S 6.9 mph11.1 kmh 30.02 in1016.6 mb - 0.00 in0.0 mm 0.00 in0.0 mm
10:35 AM 70.6°F21.4°C 56.1°F13.4°C 60% 4.6 mph SSW7.4 kmh SSW 5.8 mph9.3 kmh 30.02 in1016.6 mb - 0.00 in0.0 mm 0.00 in0.0 mm
10:40 AM 71.1°F21.7°C 56.1°F13.4°C 59% 5.8 mph S9.3 kmh S 8.1 mph13.0 kmh 30.02 in1016.6 mb - 0.00 in0.0 mm 0.00 in0.0 mm
10:45 AM 70.8°F21.6°C 56.7°F13.7°C 61% 5.8 mph SSE9.3 kmh SSE 5.8 mph9.3 kmh 30.02 in1016.6 mb - 0.00 in0.0 mm 0.00 in0.0 mm
10:50 AM 71.5°F21.9°C 56.4°F13.6°C 59% 4.6 mph SE7.4 kmh SE 8.1 mph13.0 kmh 30.02 in1016.6 mb - 0.00 in0.0 mm 0.00 in0.0 mm
10:55 AM 71.3°F21.8°C 55.8°F13.2°C 58% 3.5 mph S5.6 kmh S 6.9 mph11.1 kmh 30.02 in1016.6 mb - 0.00 in0.0 mm 0.00 in0.0 mm
11:00 AM 71.6°F22.0°C 55.6°F13.1°C 57% 4.6 mph S7.4 kmh S 4.6 mph7.4 kmh 30.02 in1016.6 mb - 0.00 in0.0 mm 0.00 in0.0 mm
11:10 AM 70.6°F21.4°C 56.5°F13.6°C 61% 4.6 mph SSE7.4 kmh SSE 5.8 mph9.3 kmh 30.02 in1016.6 mb - 0.00 in0.0 mm 0.00 in0.0 mm
11:15 AM 71.5°F21.9°C 57.3°F14.1°C 61% 3.5 mph SE5.6 kmh SE 6.9 mph11.1 kmh 30.01 in1016.3 mb - 0.00 in0.0 mm 0.00 in0.0 mm
11:20 AM 71.8°F22.1°C 57.1°F13.9°C 60% 5.8 mph SE9.3 kmh SE 11.5 mph18.5 kmh 30.01 in1016.3 mb - 0.00 in0.0 mm 0.00 in0.0 mm
11:25 AM 71.5°F21.9°C 56.5°F13.6°C 59% 4.6 mph SE7.4 kmh SE 6.9 mph11.1 kmh 30.01 in1016.3 mb - 0.00 in0.0 mm 0.00 in0.0 mm
11:30 AM 71.8°F22.1°C 55.3°F12.9°C 56% 5.8 mph SE9.3 kmh SE 10.4 mph16.7 kmh 30.01 in1016.3 mb - 0.00 in0.0 mm 0.00 in0.0 mm
11:35 AM 71.7°F22.1°C 56.1°F13.4°C 58% 5.8 mph SE9.3 kmh SE 8.1 mph13.0 kmh 30.01 in1016.3 mb - 0.00 in0.0 mm 0.00 in0.0 mm
11:40 AM 71.9°F22.2°C 55.9°F13.3°C 57% 2.3 mph SE3.7 kmh SE 9.2 mph14.8 kmh 30.01 in1016.3 mb - 0.00 in0.0 mm 0.00 in0.0 mm
11:45 AM 72.3°F22.4°C 56.2°F13.4°C 57% 4.6 mph SSE7.4 kmh SSE 8.1 mph13.0 kmh 30.01 in1016.3 mb - 0.00 in0.0 mm 0.00 in0.0 mm
11:50 AM 72.7°F22.6°C 56.1°F13.4°C 56% 5.8 mph SE9.3 kmh SE 10.4 mph16.7 kmh 30.01 in1016.3 mb - 0.00 in0.0 mm 0.00 in0.0 mm
11:55 AM 72.3°F22.4°C 55.2°F12.9°C 55% 6.9 mph SE11.1 kmh SE 9.2 mph14.8 kmh 30.01 in1016.3 mb - 0.00 in0.0 mm 0.00 in0.0 mm
12:00 PM 72.5°F22.5°C 56.4°F13.6°C 57% 4.6 mph E7.4 kmh E 6.9 mph11.1 kmh 30.01 in1016.3 mb - 0.00 in0.0 mm 0.00 in0.0 mm
12:10 PM 72.5°F22.5°C 56.4°F13.6°C 57% 3.5 mph E5.6 kmh E 5.8 mph9.3 kmh 30.01 in1016.3 mb - 0.00 in0.0 mm 0.00 in0.0 mm
12:15 PM 72.6°F22.6°C 57.5°F14.2°C 59% 4.6 mph SE7.4 kmh SE 9.2 mph14.8 kmh 30.01 in1016.3 mb - 0.00 in0.0 mm 0.00 in0.0 mm
12:20 PM 73.0°F22.8°C 55.9°F13.3°C 55% 5.8 mph SE9.3 kmh SE 8.1 mph13.0 kmh 30.01 in1016.3 mb - 0.00 in0.0 mm 0.00 in0.0 mm
12:25 PM 73.1°F22.8°C 55.5°F13.1°C 54% 6.9 mph ESE11.1 kmh ESE 10.4 mph16.7 kmh 30.01 in1016.3 mb - 0.00 in0.0 mm 0.00 in0.0 mm
12:30 PM 72.7°F22.6°C 55.1°F12.8°C 54% 6.9 mph SE11.1 kmh SE 10.4 mph16.7 kmh 30.01 in1016.3 mb - 0.00 in0.0 mm 0.00 in0.0 mm
12:35 PM 72.5°F22.5°C 55.4°F13.0°C 55% 8.1 mph SE13.0 kmh SE 11.5 mph18.5 kmh 30.01 in1016.3 mb - 0.00 in0.0 mm 0.00 in0.0 mm
12:40 PM 72.5°F22.5°C 55.4°F13.0°C 55% 6.9 mph SE11.1 kmh SE 11.5 mph18.5 kmh 30.01 in1016.3 mb - 0.00 in0.0 mm 0.00 in0.0 mm
12:45 PM 72.1°F22.3°C 55.1°F12.8°C 55% 6.9 mph SE11.1 kmh SE 11.5 mph18.5 kmh 30.01 in1016.3 mb - 0.00 in0.0 mm 0.00 in0.0 mm
12:50 PM 71.8°F22.1°C 53.2°F11.8°C 52% 4.6 mph SE7.4 kmh SE 6.9 mph11.1 kmh 30.00 in1015.9 mb - 0.00 in0.0 mm 0.00 in0.0 mm
12:55 PM 71.8°F22.1°C 54.3°F12.4°C 54% 4.6 mph SE7.4 kmh SE 4.6 mph7.4 kmh 30.01 in1016.3 mb - 0.00 in0.0 mm 0.00 in0.0 mm
01:00 PM 71.1°F21.7°C 53.1°F11.7°C 53% 5.8 mph SE9.3 kmh SE 6.9 mph11.1 kmh 30.01 in1016.3 mb - 0.00 in0.0 mm 0.00 in0.0 mm
01:10 PM 71.0°F21.7°C 54.5°F12.5°C 56% 4.6 mph SE7.4 kmh SE 11.5 mph18.5 kmh 30.00 in1015.9 mb - 0.00 in0.0 mm 0.00 in0.0 mm
01:15 PM 70.6°F21.4°C 53.6°F12.0°C 55% 5.8 mph SE9.3 kmh SE 8.1 mph13.0 kmh 30.01 in1016.3 mb - 0.00 in0.0 mm 0.00 in0.0 mm
01:20 PM 70.4°F21.3°C 54.9°F12.7°C 58% 4.6 mph ESE7.4 kmh ESE 9.2 mph14.8 kmh 30.00 in1015.9 mb - 0.00 in0.0 mm 0.00 in0.0 mm
01:25 PM 70.4°F21.3°C 54.4°F12.4°C 57% 4.6 mph SE7.4 kmh SE 5.8 mph9.3 kmh 30.01 in1016.3 mb - 0.00 in0.0 mm 0.00 in0.0 mm
01:30 PM 70.1°F21.2°C 54.2°F12.3°C 57% 5.8 mph ESE9.3 kmh ESE 6.9 mph11.1 kmh 30.00 in1015.9 mb - 0.00 in0.0 mm 0.00 in0.0 mm
01:35 PM 70.1°F21.2°C 54.6°F12.6°C 58% 8.1 mph SE13.0 kmh SE 11.5 mph18.5 kmh 30.01 in1016.3 mb - 0.00 in0.0 mm 0.00 in0.0 mm
01:40 PM 69.9°F21.1°C 55.4°F13.0°C 60% 8.1 mph SE13.0 kmh SE 11.5 mph18.5 kmh 30.00 in1015.9 mb - 0.00 in0.0 mm 0.00 in0.0 mm
01:45 PM 69.8°F21.0°C 56.2°F13.4°C 62% 5.8 mph ESE9.3 kmh ESE 11.5 mph18.5 kmh 30.00 in1015.9 mb - 0.00 in0.0 mm 0.00 in0.0 mm
01:50 PM 70.0°F21.1°C 57.3°F14.1°C 64% 8.1 mph SE13.0 kmh SE 11.5 mph18.5 kmh 30.00 in1015.9 mb - 0.00 in0.0 mm 0.00 in0.0 mm
01:55 PM 71.1°F21.7°C 58.3°F14.6°C 64% 5.8 mph ESE9.3 kmh ESE 11.5 mph18.5 kmh 30.00 in1015.9 mb - 0.00 in0.0 mm 0.00 in0.0 mm
02:00 PM 70.8°F21.6°C 58.5°F14.7°C 65% 8.1 mph SE13.0 kmh SE 11.5 mph18.5 kmh 30.00 in1015.9 mb - 0.00 in0.0 mm 0.00 in0.0 mm
02:10 PM 70.9°F21.6°C 58.6°F14.8°C 65% 8.1 mph SE13.0 kmh SE 11.5 mph18.5 kmh 29.99 in1015.6 mb - 0.00 in0.0 mm 0.00 in0.0 mm
02:15 PM 71.7°F22.1°C 59.3°F15.2°C 65% 9.2 mph SE14.8 kmh SE 17.3 mph27.8 kmh 30.00 in1015.9 mb - 0.00 in0.0 mm 0.00 in0.0 mm
02:20 PM 72.0°F22.2°C 59.6°F15.3°C 65% 6.9 mph SE11.1 kmh SE 11.5 mph18.5 kmh 30.00 in1015.9 mb - 0.00 in0.0 mm 0.00 in0.0 mm
02:25 PM 72.9°F22.7°C 60.0°F15.6°C 64% 5.8 mph SE9.3 kmh SE 10.4 mph16.7 kmh 29.99 in1015.6 mb - 0.00 in0.0 mm 0.00 in0.0 mm
02:30 PM 72.3°F22.4°C 59.8°F15.4°C 65% 6.9 mph SE11.1 kmh SE 11.5 mph18.5 kmh 29.99 in1015.6 mb - 0.00 in0.0 mm 0.00 in0.0 mm
02:35 PM 72.0°F22.2°C 59.1°F15.1°C 64% 6.9 mph SE11.1 kmh SE 9.2 mph14.8 kmh 29.99 in1015.6 mb - 0.00 in0.0 mm 0.00 in0.0 mm
02:40 PM 71.6°F22.0°C 59.6°F15.3°C 66% 4.6 mph SE7.4 kmh SE 11.5 mph18.5 kmh 29.98 in1015.2 mb - 0.00 in0.0 mm 0.00 in0.0 mm
02:45 PM 71.1°F21.7°C 58.7°F14.8°C 65% 8.1 mph SE13.0 kmh SE 11.5 mph18.5 kmh 29.99 in1015.6 mb - 0.00 in0.0 mm 0.00 in0.0 mm
02:50 PM 71.0°F21.7°C 59.1°F15.1°C 66% 6.9 mph SE11.1 kmh SE 11.5 mph18.5 kmh 29.98 in1015.2 mb - 0.00 in0.0 mm 0.00 in0.0 mm
02:55 PM 70.9°F21.6°C 59.0°F15.0°C 66% 5.8 mph SE9.3 kmh SE 10.4 mph16.7 kmh 29.98 in1015.2 mb - 0.00 in0.0 mm 0.00 in0.0 mm
03:00 PM 70.9°F21.6°C 59.0°F15.0°C 66% 8.1 mph SE13.0 kmh SE 11.5 mph18.5 kmh 29.97 in1014.9 mb - 0.00 in0.0 mm 0.00 in0.0 mm
03:10 PM 70.3°F21.3°C 58.0°F14.4°C 65% 6.9 mph SE11.1 kmh SE 9.2 mph14.8 kmh 29.97 in1014.9 mb - 0.00 in0.0 mm 0.00 in0.0 mm
03:15 PM 69.8°F21.0°C 57.9°F14.4°C 66% 5.8 mph SE9.3 kmh SE 6.9 mph11.1 kmh 29.96 in1014.6 mb - 0.00 in0.0 mm 0.00 in0.0 mm
03:20 PM 69.2°F20.7°C 58.2°F14.6°C 68% 4.6 mph SE7.4 kmh SE 6.9 mph11.1 kmh 29.96 in1014.6 mb - 0.00 in0.0 mm 0.00 in0.0 mm
03:25 PM 68.7°F20.4°C 58.1°F14.5°C 69% 4.6 mph ESE7.4 kmh ESE 8.1 mph13.0 kmh 29.96 in1014.6 mb - 0.00 in0.0 mm 0.00 in0.0 mm
03:30 PM 68.3°F20.2°C 58.2°F14.6°C 70% 5.8 mph E9.3 kmh E 6.9 mph11.1 kmh 29.96 in1014.6 mb - 0.00 in0.0 mm 0.00 in0.0 mm
03:35 PM 68.0°F20.0°C 58.2°F14.6°C 71% 4.6 mph SE7.4 kmh SE 6.9 mph11.1 kmh 29.95 in1014.2 mb - 0.00 in0.0 mm 0.00 in0.0 mm
03:40 PM 67.6°F19.8°C 58.3°F14.6°C 72% 4.6 mph ESE7.4 kmh ESE 6.9 mph11.1 kmh 29.93 in1013.5 mb - 0.00 in0.0 mm 0.00 in0.0 mm
03:45 PM 66.3°F19.1°C 57.4°F14.1°C 73% 26.5 mph SW42.6 kmh SW 35.7 mph57.5 kmh 30.03 in1016.9 mb - 0.08 in2.0 mm 0.08 in2.0 mm
03:50 PM 61.2°F16.2°C 55.0°F12.8°C 80% 20.7 mph WNW33.3 kmh WNW 26.5 mph42.6 kmh 29.99 in1015.6 mb - 0.20 in5.1 mm 0.21 in5.3 mm
03:55 PM 59.5°F15.3°C 55.0°F12.8°C 85% 12.7 mph W20.4 kmh W 18.4 mph29.6 kmh 29.99 in1015.6 mb - 0.20 in5.1 mm 0.21 in5.3 mm
04:00 PM 59.9°F15.5°C 56.3°F13.5°C 88% 12.7 mph NW20.4 kmh NW 17.3 mph27.8 kmh 29.99 in1015.6 mb - 0.20 in5.1 mm 0.21 in5.3 mm
04:10 PM 62.3°F16.8°C 58.7°F14.8°C 88% 6.9 mph NW11.1 kmh NW 12.7 mph20.4 kmh 29.98 in1015.2 mb - 0.20 in5.1 mm 0.21 in5.3 mm
04:15 PM 63.7°F17.6°C 60.7°F15.9°C 90% 8.1 mph N13.0 kmh N 13.8 mph22.2 kmh 29.98 in1015.2 mb - 0.20 in5.1 mm 0.21 in5.3 mm
04:20 PM 64.5°F18.1°C 61.2°F16.2°C 89% 6.9 mph N11.1 kmh N 11.5 mph18.5 kmh 29.99 in1015.6 mb - 0.20 in5.1 mm 0.21 in5.3 mm
04:25 PM 64.7°F18.2°C 60.4°F15.8°C 86% 9.2 mph NNW14.8 kmh NNW 11.5 mph18.5 kmh 29.99 in1015.6 mb - 0.20 in5.1 mm 0.21 in5.3 mm
04:30 PM 64.0°F17.8°C 59.7°F15.4°C 86% 5.8 mph N9.3 kmh N 10.4 mph16.7 kmh 29.99 in1015.6 mb - 0.20 in5.1 mm 0.21 in5.3 mm
04:35 PM 63.2°F17.3°C 58.9°F14.9°C 86% 6.9 mph NNE11.1 kmh NNE 13.8 mph22.2 kmh 30.00 in1015.9 mb - 0.20 in5.1 mm 0.21 in5.3 mm
04:40 PM 62.6°F17.0°C 58.7°F14.8°C 87% 3.5 mph NNE5.6 kmh NNE 6.9 mph11.1 kmh 30.00 in1015.9 mb - 0.20 in5.1 mm 0.21 in5.3 mm
04:45 PM 62.3°F16.8°C 58.4°F14.7°C 87% 5.8 mph NNE9.3 kmh NNE 10.4 mph16.7 kmh 30.00 in1015.9 mb - 0.18 in4.6 mm 0.21 in5.3 mm
04:50 PM 62.1°F16.7°C 58.5°F14.7°C 88% 6.9 mph NE11.1 kmh NE 9.2 mph14.8 kmh 30.00 in1015.9 mb - 0.00 in0.0 mm 0.21 in5.3 mm
04:55 PM 62.3°F16.8°C 58.7°F14.8°C 88% 5.8 mph NNE9.3 kmh NNE 12.7 mph20.4 kmh 30.00 in1015.9 mb - 0.00 in0.0 mm 0.21 in5.3 mm
05:00 PM 63.2°F17.3°C 59.9°F15.5°C 89% 4.6 mph NNE7.4 kmh NNE 5.8 mph9.3 kmh 30.00 in1015.9 mb - 0.00 in0.0 mm 0.21 in5.3 mm
05:10 PM 63.9°F17.7°C 59.6°F15.3°C 86% 5.8 mph N9.3 kmh N 10.4 mph16.7 kmh 29.99 in1015.6 mb - 0.00 in0.0 mm 0.21 in5.3 mm
05:15 PM 64.0°F17.8°C 59.8°F15.4°C 86% 5.8 mph NNE9.3 kmh NNE 9.2 mph14.8 kmh 29.99 in1015.6 mb - 0.00 in0.0 mm 0.21 in5.3 mm
05:20 PM 64.5°F18.1°C 59.5°F15.3°C 84% 5.8 mph NNE9.3 kmh NNE 11.5 mph18.5 kmh 29.99 in1015.6 mb - 0.00 in0.0 mm 0.21 in5.3 mm
05:25 PM 64.7°F18.2°C 59.4°F15.2°C 83% 5.8 mph NNE9.3 kmh NNE 10.4 mph16.7 kmh 29.99 in1015.6 mb - 0.00 in0.0 mm 0.21 in5.3 mm
05:30 PM 65.2°F18.4°C 59.9°F15.5°C 83% 5.8 mph NNE9.3 kmh NNE 9.2 mph14.8 kmh 29.99 in1015.6 mb - 0.00 in0.0 mm 0.21 in5.3 mm
05:35 PM 65.1°F18.4°C 59.1°F15.1°C 81% 4.6 mph NNE7.4 kmh NNE 8.1 mph13.0 kmh 29.99 in1015.6 mb - 0.00 in0.0 mm 0.21 in5.3 mm
05:40 PM 65.3°F18.5°C 59.4°F15.2°C 81% 3.5 mph NNE5.6 kmh NNE 6.9 mph11.1 kmh 29.99 in1015.6 mb - 0.00 in0.0 mm 0.21 in5.3 mm
05:45 PM 65.6°F18.7°C 59.6°F15.3°C 81% 5.8 mph NNE9.3 kmh NNE 9.2 mph14.8 kmh 29.99 in1015.6 mb - 0.00 in0.0 mm 0.21 in5.3 mm
05:50 PM 65.5°F18.6°C 59.9°F15.5°C 82% 4.6 mph NE7.4 kmh NE 9.2 mph14.8 kmh 29.99 in1015.6 mb - 0.00 in0.0 mm 0.21 in5.3 mm
05:55 PM 65.1°F18.4°C 58.1°F14.5°C 78% 5.8 mph NNE9.3 kmh NNE 8.1 mph13.0 kmh 29.99 in1015.6 mb - 0.00 in0.0 mm 0.21 in5.3 mm
06:00 PM 65.2°F18.4°C 57.8°F14.3°C 77% 8.1 mph NE13.0 kmh NE 10.4 mph16.7 kmh 29.99 in1015.6 mb - 0.00 in0.0 mm 0.21 in5.3 mm
06:10 PM 65.6°F18.7°C 58.1°F14.5°C 77% 4.6 mph NE7.4 kmh NE 9.2 mph14.8 kmh 30.00 in1015.9 mb - 0.00 in0.0 mm 0.21 in5.3 mm
06:15 PM 65.9°F18.8°C 58.8°F14.9°C 78% 4.6 mph NE7.4 kmh NE 8.1 mph13.0 kmh 29.99 in1015.6 mb - 0.00 in0.0 mm 0.21 in5.3 mm
06:20 PM 65.9°F18.8°C 59.2°F15.1°C 79% 4.6 mph NE7.4 kmh NE 8.1 mph13.0 kmh 29.99 in1015.6 mb - 0.00 in0.0 mm 0.21 in5.3 mm
06:25 PM 65.7°F18.7°C 59.3°F15.2°C 80% 6.9 mph NE11.1 kmh NE 10.4 mph16.7 kmh 29.99 in1015.6 mb - 0.00 in0.0 mm 0.21 in5.3 mm
06:30 PM 65.1°F18.4°C 58.8°F14.9°C 80% 8.1 mph NNE13.0 kmh NNE 10.4 mph16.7 kmh 30.00 in1015.9 mb - 0.00 in0.0 mm 0.21 in5.3 mm
06:35 PM 65.2°F18.4°C 59.5°F15.3°C 82% 4.6 mph NE7.4 kmh NE 4.6 mph7.4 kmh 30.00 in1015.9 mb - 0.00 in0.0 mm 0.21 in5.3 mm
06:40 PM 65.4°F18.6°C 59.4°F15.2°C 81% 2.3 mph NE3.7 kmh NE 5.8 mph9.3 kmh 30.00 in1015.9 mb - 0.00 in0.0 mm 0.21 in5.3 mm
06:45 PM 65.3°F18.5°C 59.6°F15.3°C 82% 2.3 mph NE3.7 kmh NE 4.6 mph7.4 kmh 30.00 in1015.9 mb - 0.00 in0.0 mm 0.21 in5.3 mm
06:50 PM 65.3°F18.5°C 59.3°F15.2°C 81% 3.5 mph NE5.6 kmh NE 4.6 mph7.4 kmh 30.00 in1015.9 mb - 0.00 in0.0 mm 0.21 in5.3 mm
06:55 PM 65.2°F18.4°C 59.3°F15.2°C 81% 3.5 mph NE5.6 kmh NE 3.5 mph5.6 kmh 30.00 in1015.9 mb - 0.00 in0.0 mm 0.21 in5.3 mm
07:00 PM 65.1°F18.4°C 59.5°F15.3°C 82% 4.6 mph ENE7.4 kmh ENE 11.5 mph18.5 kmh 30.00 in1015.9 mb - 0.00 in0.0 mm 0.21 in5.3 mm
07:10 PM 65.5°F18.6°C 59.5°F15.3°C 81% 3.5 mph E5.6 kmh E 8.1 mph13.0 kmh 30.01 in1016.3 mb - 0.00 in0.0 mm 0.21 in5.3 mm
07:15 PM 65.7°F18.7°C 59.7°F15.4°C 81% 3.5 mph ENE5.6 kmh ENE 5.8 mph9.3 kmh 30.00 in1015.9 mb - 0.00 in0.0 mm 0.21 in5.3 mm
07:20 PM 65.5°F18.6°C 59.5°F15.3°C 81% 2.3 mph NE3.7 kmh NE 6.9 mph11.1 kmh 30.00 in1015.9 mb - 0.00 in0.0 mm 0.21 in5.3 mm
07:25 PM 65.6°F18.7°C 59.6°F15.3°C 81% 3.5 mph ENE5.6 kmh ENE 6.9 mph11.1 kmh 30.01 in1016.3 mb - 0.00 in0.0 mm 0.21 in5.3 mm
07:30 PM 65.5°F18.6°C 59.5°F15.3°C 81% 2.3 mph ENE3.7 kmh ENE 3.5 mph5.6 kmh 30.01 in1016.3 mb - 0.00 in0.0 mm 0.21 in5.3 mm
07:35 PM 65.3°F18.5°C 59.3°F15.2°C 81% 2.3 mph ENE3.7 kmh ENE 4.6 mph7.4 kmh 30.00 in1015.9 mb - 0.00 in0.0 mm 0.21 in5.3 mm
07:40 PM 65.2°F18.4°C 59.2°F15.1°C 81% 2.3 mph ENE3.7 kmh ENE 3.5 mph5.6 kmh 30.00 in1015.9 mb - 0.00 in0.0 mm 0.21 in5.3 mm
07:45 PM 65.2°F18.4°C 59.2°F15.1°C 81% 3.5 mph E5.6 kmh E 4.6 mph7.4 kmh 30.00 in1015.9 mb - 0.00 in0.0 mm 0.21 in5.3 mm
07:50 PM 65.1°F18.4°C 59.5°F15.3°C 82% 3.5 mph E5.6 kmh E 3.5 mph5.6 kmh 30.00 in1015.9 mb - 0.00 in0.0 mm 0.21 in5.3 mm
07:55 PM 65.0°F18.3°C 59.4°F15.2°C 82% 3.5 mph E5.6 kmh E 5.8 mph9.3 kmh 30.00 in1015.9 mb - 0.00 in0.0 mm 0.21 in5.3 mm
08:00 PM 64.9°F18.3°C 59.2°F15.1°C 82% 3.5 mph ENE5.6 kmh ENE 4.6 mph7.4 kmh 30.00 in1015.9 mb - 0.00 in0.0 mm 0.21 in5.3 mm
08:10 PM 64.5°F18.1°C 58.9°F14.9°C 82% 1.2 mph E1.9 kmh E 3.5 mph5.6 kmh 30.00 in1015.9 mb - 0.00 in0.0 mm 0.21 in5.3 mm
08:15 PM 64.3°F17.9°C 59.0°F15.0°C 83% 2.3 mph NE3.7 kmh NE 2.3 mph3.7 kmh 29.99 in1015.6 mb - 0.00 in0.0 mm 0.21 in5.3 mm
08:20 PM 64.0°F17.8°C 58.7°F14.8°C 83% 1.2 mph NE1.9 kmh NE 2.3 mph3.7 kmh 30.00 in1015.9 mb - 0.00 in0.0 mm 0.21 in5.3 mm
08:25 PM 63.6°F17.6°C 58.4°F14.7°C 83% 2.3 mph ENE3.7 kmh ENE 3.5 mph5.6 kmh 30.00 in1015.9 mb - 0.00 in0.0 mm 0.21 in5.3 mm
08:30 PM 63.4°F17.4°C 58.1°F14.5°C 83% 2.3 mph NE3.7 kmh NE 3.5 mph5.6 kmh 30.00 in1015.9 mb - 0.00 in0.0 mm 0.21 in5.3 mm
08:35 PM 63.2°F17.3°C 57.9°F14.4°C 83% 1.2 mph ENE1.9 kmh ENE 3.5 mph5.6 kmh 30.00 in1015.9 mb - 0.00 in0.0 mm 0.21 in5.3 mm
08:40 PM 63.0°F17.2°C 57.8°F14.3°C 83% 1.2 mph ENE1.9 kmh ENE 2.3 mph3.7 kmh 30.00 in1015.9 mb - 0.00 in0.0 mm 0.21 in5.3 mm
08:45 PM 62.7°F17.1°C 57.5°F14.2°C 83% Calm Calm 2.3 mph3.7 kmh 30.00 in1015.9 mb - 0.00 in0.0 mm 0.21 in5.3 mm
08:50 PM 62.1°F16.7°C 57.2°F14.0°C 84% 1.2 mph NE1.9 kmh NE 3.5 mph5.6 kmh 30.00 in1015.9 mb - 0.00 in0.0 mm 0.21 in5.3 mm
08:55 PM 61.8°F16.6°C 57.2°F14.0°C 85% 1.2 mph NE1.9 kmh NE 1.2 mph1.9 kmh 30.00 in1015.9 mb - 0.00 in0.0 mm 0.21 in5.3 mm
09:00 PM 61.5°F16.4°C 56.9°F13.8°C 85% Calm Calm 2.3 mph3.7 kmh 30.00 in1015.9 mb - 0.00 in0.0 mm 0.21 in5.3 mm
09:10 PM 61.1°F16.2°C 56.9°F13.8°C 86% 1.2 mph NE1.9 kmh NE 1.2 mph1.9 kmh 30.00 in1015.9 mb - 0.00 in0.0 mm 0.21 in5.3 mm
09:15 PM 60.8°F16.0°C 56.6°F13.7°C 86% 1.2 mph NE1.9 kmh NE 2.3 mph3.7 kmh 30.00 in1015.9 mb - 0.00 in0.0 mm 0.21 in5.3 mm
09:20 PM 60.5°F15.8°C 56.6°F13.7°C 87% 1.2 mph NE1.9 kmh NE 2.3 mph3.7 kmh 30.00 in1015.9 mb - 0.00 in0.0 mm 0.21 in5.3 mm
09:25 PM 60.3°F15.7°C 56.7°F13.7°C 88% 1.2 mph NE1.9 kmh NE 2.3 mph3.7 kmh 30.00 in1015.9 mb - 0.00 in0.0 mm 0.21 in5.3 mm
09:30 PM 60.2°F15.7°C 56.7°F13.7°C 88% 1.2 mph NE1.9 kmh NE 2.3 mph3.7 kmh 30.00 in1015.9 mb - 0.00 in0.0 mm 0.21 in5.3 mm
09:35 PM 60.0°F15.6°C 56.4°F13.6°C 88% 1.2 mph NE1.9 kmh NE 2.3 mph3.7 kmh 30.00 in1015.9 mb - 0.00 in0.0 mm 0.21 in5.3 mm
09:40 PM 60.2°F15.7°C 56.9°F13.8°C 89% 1.2 mph NE1.9 kmh NE 2.3 mph3.7 kmh 30.00 in1015.9 mb - 0.00 in0.0 mm 0.21 in5.3 mm
09:45 PM 60.3°F15.7°C 56.7°F13.7°C 88% Calm Calm 1.2 mph1.9 kmh 30.01 in1016.3 mb - 0.00 in0.0 mm 0.21 in5.3 mm
09:50 PM 59.6°F15.3°C 55.7°F13.2°C 87% Calm Calm -- 30.01 in1016.3 mb - 0.00 in0.0 mm 0.21 in5.3 mm
09:55 PM 59.2°F15.1°C 56.0°F13.3°C 89% 1.2 mph NE1.9 kmh NE 1.2 mph1.9 kmh 30.01 in1016.3 mb - 0.00 in0.0 mm 0.21 in5.3 mm
10:00 PM 59.2°F15.1°C 56.0°F13.3°C 89% 1.2 mph NE1.9 kmh NE 2.3 mph3.7 kmh 30.00 in1015.9 mb - 0.00 in0.0 mm 0.21 in5.3 mm
10:10 PM 59.3°F15.2°C 56.4°F13.6°C 90% Calm Calm 2.3 mph3.7 kmh 30.00 in1015.9 mb - 0.00 in0.0 mm 0.21 in5.3 mm
10:15 PM 59.2°F15.1°C 56.3°F13.5°C 90% Calm Calm 1.2 mph1.9 kmh 30.01 in1016.3 mb - 0.00 in0.0 mm 0.21 in5.3 mm
10:20 PM 59.1°F15.1°C 56.2°F13.4°C 90% Calm Calm 1.2 mph1.9 kmh 30.00 in1015.9 mb - 0.00 in0.0 mm 0.21 in5.3 mm
10:25 PM 58.7°F14.8°C 55.8°F13.2°C 90% 1.2 mph N1.9 kmh N 2.3 mph3.7 kmh 30.00 in1015.9 mb - 0.00 in0.0 mm 0.21 in5.3 mm
10:30 PM 59.0°F15.0°C 56.3°F13.5°C 91% 2.3 mph NE3.7 kmh NE 2.3 mph3.7 kmh 30.00 in1015.9 mb - 0.00 in0.0 mm 0.21 in5.3 mm
10:35 PM 59.0°F15.0°C 56.1°F13.4°C 90% 1.2 mph NE1.9 kmh NE 2.3 mph3.7 kmh 30.00 in1015.9 mb - 0.00 in0.0 mm 0.21 in5.3 mm
10:40 PM 59.0°F15.0°C 56.4°F13.6°C 91% 2.3 mph NNE3.7 kmh NNE 3.5 mph5.6 kmh 30.00 in1015.9 mb - 0.00 in0.0 mm 0.21 in5.3 mm
10:45 PM 59.2°F15.1°C 56.6°F13.7°C 91% 1.2 mph NE1.9 kmh NE 1.2 mph1.9 kmh 30.00 in1015.9 mb - 0.00 in0.0 mm 0.21 in5.3 mm
10:50 PM 59.3°F15.2°C 56.7°F13.7°C 91% 1.2 mph NE1.9 kmh NE 3.5 mph5.6 kmh 30.00 in1015.9 mb - 0.00 in0.0 mm 0.21 in5.3 mm
10:55 PM 59.7°F15.4°C 57.0°F13.9°C 91% 1.2 mph ENE1.9 kmh ENE 1.2 mph1.9 kmh 30.00 in1015.9 mb - 0.00 in0.0 mm 0.21 in5.3 mm
11:00 PM 59.6°F15.3°C 57.0°F13.9°C 91% 1.2 mph NE1.9 kmh NE 1.2 mph1.9 kmh 30.00 in1015.9 mb - 0.00 in0.0 mm 2.26 in57.4 mm
11:10 PM 59.9°F15.5°C 57.2°F14.0°C 91% 1.2 mph ENE1.9 kmh ENE 2.3 mph3.7 kmh 30.00 in1015.9 mb - 0.00 in0.0 mm 2.26 in57.4 mm
11:15 PM 59.8°F15.4°C 56.9°F13.8°C 90% 1.2 mph ENE1.9 kmh ENE 1.2 mph1.9 kmh 30.00 in1015.9 mb - 0.00 in0.0 mm 2.26 in57.4 mm
11:20 PM 59.7°F15.4°C 56.8°F13.8°C 90% Calm Calm 2.3 mph3.7 kmh 30.00 in1015.9 mb - 0.00 in0.0 mm 2.26 in57.4 mm
11:25 PM 59.3°F15.2°C 56.1°F13.4°C 89% 1.2 mph E1.9 kmh E 2.3 mph3.7 kmh 30.00 in1015.9 mb - 0.00 in0.0 mm 2.26 in57.4 mm
11:30 PM 58.7°F14.8°C 55.8°F13.2°C 90% Calm Calm 2.3 mph3.7 kmh 30.00 in1015.9 mb - 0.00 in0.0 mm 2.26 in57.4 mm
11:35 PM 58.8°F14.9°C 56.2°F13.4°C 91% Calm Calm -- 30.00 in1015.9 mb - 0.00 in0.0 mm 2.26 in57.4 mm
11:40 PM 58.7°F14.8°C 56.1°F13.4°C 91% 1.2 mph E1.9 kmh E 3.5 mph5.6 kmh 30.00 in1015.9 mb - 0.00 in0.0 mm 2.26 in57.4 mm
11:45 PM 58.7°F14.8°C 56.1°F13.4°C 91% 1.2 mph ENE1.9 kmh ENE 2.3 mph3.7 kmh 30.00 in1015.9 mb - 0.00 in0.0 mm 2.26 in57.4 mm
11:50 PM 59.0°F15.0°C 56.7°F13.7°C 92% 1.2 mph ENE1.9 kmh ENE 2.3 mph3.7 kmh 29.99 in1015.6 mb - 0.00 in0.0 mm 2.26 in57.4 mm
11:55 PM 59.3°F15.2°C 56.7°F13.7°C 91% 1.2 mph ENE1.9 kmh ENE 1.2 mph1.9 kmh 29.99 in1015.6 mb - 0.00 in0.0 mm 2.26 in57.4 mm